Time;durP1;ratioP1;P1;durP2;ratioP2;P2;SDS_P1;SDS_P2;PMS_P1;PMS_P2;Temp;Humidity;BMP_temperature;BMP_pressure;BME280_temperature;BME280_humidity;BME280_pressure;Samples;Min_cycle;Max_cycle;Signal;HPM_P1;HPM_P2
2022/03/06 00:02:19;;;;;;;5.07;3.03;;;9.40;99.90;;;;;;5067073;28;20190;-67
2022/03/06 00:04:46;;;;;;;6.07;2.90;;;9.40;99.90;;;;;;5064972;28;20191;-67
2022/03/06 00:07:13;;;;;;;6.10;2.97;;;9.50;99.90;;;;;;5071113;28;20657;-68
2022/03/06 00:24:23;;;;;;;6.63;2.90;;;9.50;99.90;;;;;;5059792;28;20297;-67
2022/03/06 00:26:49;;;;;;;5.03;2.90;;;9.50;99.90;;;;;;5066094;28;20293;-68
2022/03/06 00:29:15;;;;;;;4.63;3.13;;;9.50;99.90;;;;;;5069252;28;20214;-68
2022/03/06 00:31:41;;;;;;;9.30;3.47;;;9.50;99.90;;;;;;5067134;28;20221;-68
2022/03/06 00:34:08;;;;;;;3.83;3.10;;;9.50;99.90;;;;;;5067104;28;20229;-68
2022/03/06 01:02:31;;;;;;;4.50;3.00;;;9.50;99.90;;;;;;5067026;28;20611;-65
2022/03/06 01:04:57;;;;;;;4.40;3.17;;;9.40;99.90;;;;;;5063998;28;20194;-65
2022/03/06 01:07:24;;;;;;;3.90;3.07;;;9.40;99.90;;;;;;5065567;28;20631;-66
2022/03/06 01:09:51;;;;;;;6.37;3.53;;;9.40;99.90;;;;;;5065957;28;20563;-66
2022/03/06 01:12:17;;;;;;;11.70;3.77;;;9.40;99.90;;;;;;5074416;28;20574;-66
2022/03/06 01:14:43;;;;;;;5.00;3.40;;;9.40;99.90;;;;;;5069421;28;20186;-66
2022/03/06 01:17:10;;;;;;;5.77;3.17;;;9.40;99.90;;;;;;5063787;28;20585;-66
2022/03/06 01:19:37;;;;;;;5.33;3.63;;;9.40;99.90;;;;;;5084119;28;20824;-66
2022/03/06 01:22:04;;;;;;;4.53;3.20;;;9.40;99.90;;;;;;5070956;28;20202;-66
2022/03/06 01:24:30;;;;;;;7.93;4.03;;;9.40;99.90;;;;;;5070779;28;20191;-66
2022/03/06 01:26:56;;;;;;;4.90;3.17;;;9.40;99.90;;;;;;5080896;28;20187;-65
2022/03/06 01:29:23;;;;;;;5.30;3.23;;;9.40;99.90;;;;;;5070897;28;20829;-66
2022/03/06 01:31:49;;;;;;;7.90;3.60;;;9.30;99.90;;;;;;5069367;28;20182;-66
2022/03/06 01:34:17;;;;;;;7.73;3.50;;;9.30;99.90;;;;;;5070420;28;20352;-66
2022/03/06 01:36:44;;;;;;;11.43;3.80;;;9.30;99.90;;;;;;5048107;28;20244;-66
2022/03/06 01:39:10;;;;;;;6.77;3.60;;;9.40;99.90;;;;;;5052395;28;20195;-66
2022/03/06 01:41:37;;;;;;;7.87;3.50;;;9.30;99.90;;;;;;5067101;28;20193;-66
2022/03/06 01:44:05;;;;;;;10.17;3.40;;;9.30;99.90;;;;;;5071169;28;20198;-66
2022/03/06 01:46:31;;;;;;;5.20;3.57;;;9.30;99.90;;;;;;5073100;28;20218;-66
2022/03/06 01:48:57;;;;;;;5.77;3.77;;;9.40;99.90;;;;;;5075999;28;21054;-66
2022/03/06 01:51:23;;;;;;;8.77;3.80;;;9.40;99.90;;;;;;5069184;28;20597;-66
2022/03/06 01:53:50;;;;;;;5.43;3.33;;;9.40;99.90;;;;;;5085917;28;20186;-66
2022/03/06 01:56:16;;;;;;;9.30;3.60;;;9.40;99.90;;;;;;5080040;28;20198;-66
2022/03/06 01:58:43;;;;;;;7.63;3.50;;;9.40;99.90;;;;;;5069958;28;20194;-66
2022/03/06 02:01:09;;;;;;;5.13;3.30;;;9.40;99.90;;;;;;5069777;28;20225;-66
2022/03/06 02:03:35;;;;;;;10.30;3.53;;;9.40;99.90;;;;;;5068937;28;20657;-66
2022/03/06 02:06:04;;;;;;;5.87;3.77;;;9.50;99.90;;;;;;5068895;28;20179;-66
2022/03/06 02:08:30;;;;;;;7.23;3.80;;;9.50;99.90;;;;;;5052137;28;20211;-67
2022/03/06 02:10:57;;;;;;;5.37;3.80;;;9.50;99.90;;;;;;5050550;28;20193;-65
2022/03/06 02:13:24;;;;;;;8.07;4.17;;;9.50;99.90;;;;;;5068412;28;20183;-65
2022/03/06 02:15:52;;;;;;;5.47;3.50;;;9.50;99.90;;;;;;5067732;28;20285;-65
2022/03/06 02:18:19;;;;;;;15.10;3.90;;;9.60;99.90;;;;;;5067554;28;20773;-65
2022/03/06 02:20:47;;;;;;;5.80;3.63;;;9.60;99.90;;;;;;5068516;28;20191;-65
2022/03/06 02:23:14;;;;;;;15.20;4.00;;;9.60;99.90;;;;;;5076458;28;20927;-66
2022/03/06 02:25:40;;;;;;;8.13;3.53;;;9.60;99.90;;;;;;5069534;28;20210;-65
2022/03/06 02:28:09;;;;;;;5.93;3.30;;;9.60;99.90;;;;;;5067116;28;20217;-67
2022/03/06 02:30:39;;;;;;;8.83;3.97;;;9.60;99.90;;;;;;5067953;28;20183;-65
2022/03/06 02:33:09;;;;;;;7.40;3.70;;;9.60;99.90;;;;;;5069791;28;20239;-66
2022/03/06 02:35:36;;;;;;;6.67;3.20;;;9.60;99.90;;;;;;5069200;28;20226;-69
2022/03/06 02:38:04;;;;;;;4.90;3.57;;;9.60;99.90;;;;;;5069777;28;20190;-68
2022/03/06 02:40:37;;;;;;;7.40;3.80;;;9.60;99.90;;;;;;5069998;28;20191;-68
2022/03/06 02:43:05;;;;;;;8.67;3.50;;;9.60;99.90;;;;;;5067022;28;20239;-68
2022/03/06 02:45:32;;;;;;;5.30;3.23;;;9.70;99.90;;;;;;5067295;28;20296;-68
2022/03/06 02:47:59;;;;;;;5.40;3.37;;;9.70;99.90;;;;;;5067860;28;20228;-69
2022/03/06 02:50:30;;;;;;;7.93;3.60;;;9.70;99.90;;;;;;5069502;28;20190;-68
2022/03/06 02:52:59;;;;;;;3.90;2.90;;;9.70;99.90;;;;;;5073576;28;20190;-68
2022/03/06 02:55:26;;;;;;;4.60;3.50;;;9.70;99.90;;;;;;5048372;28;20977;-68
2022/03/06 02:57:54;;;;;;;5.83;3.10;;;9.70;99.90;;;;;;5066981;28;20209;-68
2022/03/06 03:00:22;;;;;;;4.80;3.13;;;9.70;99.90;;;;;;5069390;28;20667;-69
2022/03/06 03:02:50;;;;;;;6.73;2.93;;;9.70;99.90;;;;;;5067755;28;20182;-68
2022/03/06 03:05:18;;;;;;;3.77;2.90;;;9.60;99.90;;;;;;5066759;28;20214;-68
2022/03/06 03:07:48;;;;;;;3.83;3.23;;;9.60;99.90;;;;;;5068208;28;20237;-68
2022/03/06 03:10:20;;;;;;;7.57;2.93;;;9.60;99.90;;;;;;5067763;28;20252;-68
2022/03/06 03:12:47;;;;;;;6.43;2.93;;;9.60;99.90;;;;;;5067384;28;20651;-68
2022/03/06 03:15:14;;;;;;;9.13;3.20;;;9.70;99.90;;;;;;5066076;28;20231;-64
2022/03/06 03:17:41;;;;;;;5.03;2.97;;;9.70;99.90;;;;;;5066677;28;20186;-65
2022/03/06 03:20:09;;;;;;;4.63;2.90;;;9.60;99.90;;;;;;5067919;28;20239;-65
2022/03/06 03:22:36;;;;;;;8.57;3.07;;;9.60;99.90;;;;;;5070933;28;20197;-65
2022/03/06 03:25:04;;;;;;;7.30;3.10;;;9.60;99.90;;;;;;5077368;28;20215;-65
2022/03/06 03:27:30;;;;;;;5.80;3.60;;;9.60;99.90;;;;;;5067875;28;20206;-65
2022/03/06 03:29:56;;;;;;;6.60;2.90;;;9.70;99.90;;;;;;5060511;28;20277;-64
2022/03/06 03:32:23;;;;;;;8.57;3.33;;;9.70;99.90;;;;;;5065530;28;20274;-65
2022/03/06 03:34:49;;;;;;;3.60;2.83;;;9.70;99.90;;;;;;5064374;28;20194;-65
2022/03/06 03:37:16;;;;;;;5.13;2.90;;;9.70;99.90;;;;;;5050056;28;20187;-65
2022/03/06 03:39:42;;;;;;;3.73;2.90;;;9.70;99.90;;;;;;5067609;28;20183;-66
2022/03/06 03:42:08;;;;;;;4.17;3.37;;;9.70;99.90;;;;;;5068361;28;20167;-65
2022/03/06 03:44:34;;;;;;;5.50;3.20;;;9.70;99.90;;;;;;5066543;28;20175;-65
2022/03/06 03:47:01;;;;;;;7.00;3.13;;;9.70;99.90;;;;;;5067299;28;20296;-65
2022/03/06 03:49:27;;;;;;;5.90;3.17;;;9.80;99.90;;;;;;5067436;28;20217;-65
2022/03/06 03:51:53;;;;;;;8.77;2.83;;;9.80;99.90;;;;;;5050372;28;20190;-65
2022/03/06 03:54:19;;;;;;;6.17;2.97;;;9.70;99.90;;;;;;5076594;28;20662;-65
2022/03/06 03:56:46;;;;;;;3.87;3.03;;;9.70;99.90;;;;;;5062634;28;20515;-65
2022/03/06 03:59:12;;;;;;;7.23;3.17;;;9.70;99.90;;;;;;5080704;28;20183;-64
2022/03/06 04:01:38;;;;;;;8.00;3.50;;;9.70;99.90;;;;;;5066824;28;20210;-65
2022/03/06 04:04:05;;;;;;;6.37;3.20;;;9.70;99.90;;;;;;5068080;28;20198;-65
2022/03/06 04:06:31;;;;;;;7.10;3.37;;;9.70;99.90;;;;;;5067631;28;20244;-65
2022/03/06 04:08:57;;;;;;;5.47;3.60;;;9.70;99.90;;;;;;5077554;28;20268;-63
2022/03/06 04:11:23;;;;;;;7.40;3.70;;;9.70;99.90;;;;;;5068116;28;20698;-69
2022/03/06 04:13:50;;;;;;;6.60;3.80;;;9.70;99.90;;;;;;5050287;28;20266;-69
2022/03/06 04:16:16;;;;;;;6.90;4.20;;;9.70;99.90;;;;;;5065957;28;20194;-68
2022/03/06 04:18:42;;;;;;;6.13;4.17;;;9.70;99.90;;;;;;5066798;28;20222;-69
2022/03/06 04:21:09;;;;;;;5.50;3.40;;;9.70;99.90;;;;;;5050531;28;20662;-69
2022/03/06 04:23:35;;;;;;;7.63;3.77;;;9.70;99.90;;;;;;5071084;28;20195;-69
2022/03/06 04:26:01;;;;;;;4.60;3.60;;;9.70;99.90;;;;;;5064427;28;20217;-69
2022/03/06 04:28:27;;;;;;;4.63;3.60;;;9.70;99.90;;;;;;5067089;28;20225;-69
2022/03/06 04:30:53;;;;;;;5.53;3.60;;;9.70;99.90;;;;;;5067021;28;20575;-69
2022/03/06 04:33:20;;;;;;;5.40;3.57;;;9.70;99.90;;;;;;5049394;28;20179;-66
2022/03/06 04:35:46;;;;;;;9.03;3.63;;;9.70;99.90;;;;;;5065060;28;21084;-66
2022/03/06 04:38:12;;;;;;;12.53;4.57;;;9.70;99.90;;;;;;5071810;28;20216;-66
2022/03/06 04:40:38;;;;;;;5.10;3.50;;;9.70;99.90;;;;;;5068189;28;20207;-64
2022/03/06 04:43:05;;;;;;;6.00;3.40;;;9.70;99.90;;;;;;5067302;28;20312;-65
2022/03/06 04:45:31;;;;;;;6.33;4.23;;;9.70;99.90;;;;;;5066260;28;20207;-64
2022/03/06 04:47:57;;;;;;;5.23;4.23;;;9.70;99.90;;;;;;5068042;28;20224;-66
2022/03/06 04:50:24;;;;;;;4.23;3.83;;;9.70;99.90;;;;;;5067556;28;20836;-66
2022/03/06 04:52:50;;;;;;;11.03;4.20;;;9.80;99.90;;;;;;5066222;28;20604;-67
2022/03/06 04:55:16;;;;;;;6.17;3.60;;;9.80;99.90;;;;;;5065884;28;20179;-64
2022/03/06 04:57:46;;;;;;;6.80;3.87;;;9.80;99.90;;;;;;5067069;28;20187;-66
2022/03/06 05:00:14;;;;;;;6.37;3.60;;;9.80;99.90;;;;;;5066554;28;20190;-67
2022/03/06 05:02:41;;;;;;;6.07;3.80;;;9.80;99.90;;;;;;5065989;28;20278;-67
2022/03/06 05:05:09;;;;;;;9.30;4.13;;;9.80;99.90;;;;;;5066160;28;20187;-67
2022/03/06 05:07:36;;;;;;;5.97;3.60;;;9.80;99.90;;;;;;5052103;28;20217;-67
2022/03/06 05:10:08;;;;;;;6.47;3.57;;;9.80;99.90;;;;;;5077707;28;20324;-66
2022/03/06 05:12:35;;;;;;;8.03;3.93;;;9.80;99.90;;;;;;5065119;28;20834;-67
2022/03/06 05:15:02;;;;;;;6.80;3.80;;;9.80;99.90;;;;;;5071533;28;20198;-67
2022/03/06 05:17:28;;;;;;;8.00;3.83;;;9.90;99.90;;;;;;5053596;28;20640;-67
2022/03/06 05:19:54;;;;;;;7.47;4.17;;;9.80;99.90;;;;;;5071787;28;20187;-67
2022/03/06 05:22:20;;;;;;;4.57;3.30;;;9.80;99.90;;;;;;5064791;28;20274;-67
2022/03/06 05:24:47;;;;;;;6.83;3.90;;;9.80;99.90;;;;;;5051381;28;20196;-67
2022/03/06 05:27:13;;;;;;;7.70;3.50;;;9.90;99.90;;;;;;5046610;28;20268;-67
2022/03/06 05:29:39;;;;;;;10.90;3.50;;;9.90;99.90;;;;;;5070780;28;20356;-67
2022/03/06 05:32:06;;;;;;;5.13;3.10;;;9.90;99.90;;;;;;5068600;28;20647;-65
2022/03/06 05:34:33;;;;;;;8.63;3.23;;;9.90;99.90;;;;;;5052199;28;20503;-64
2022/03/06 05:36:59;;;;;;;4.73;2.93;;;9.90;99.90;;;;;;5082324;28;20551;-65
2022/03/06 05:39:25;;;;;;;6.50;2.27;;;10.00;99.90;;;;;;5078254;28;20180;-65
2022/03/06 05:41:51;;;;;;;5.37;2.60;;;10.00;99.90;;;;;;5069578;28;20281;-65
2022/03/06 05:44:18;;;;;;;3.37;3.00;;;10.10;99.90;;;;;;5070279;28;20522;-66
2022/03/06 05:46:44;;;;;;;4.60;2.37;;;10.10;99.90;;;;;;5070621;28;20214;-65
2022/03/06 05:49:13;;;;;;;3.17;2.80;;;10.10;99.90;;;;;;5068910;28;20214;-66
2022/03/06 05:51:41;;;;;;;5.80;2.53;;;10.20;99.90;;;;;;5068944;28;20221;-66
2022/03/06 05:54:08;;;;;;;4.50;2.30;;;10.20;99.90;;;;;;5071241;28;20201;-64
2022/03/06 05:56:35;;;;;;;3.70;2.70;;;10.30;99.90;;;;;;5068934;28;20187;-66
2022/03/06 05:59:03;;;;;;;4.47;3.00;;;10.30;99.90;;;;;;5068905;28;20194;-67
2022/03/06 06:01:30;;;;;;;3.93;2.77;;;10.30;99.90;;;;;;5052078;28;20209;-65
2022/03/06 06:03:58;;;;;;;7.30;3.50;;;10.40;99.90;;;;;;5052904;28;20674;-65
2022/03/06 06:06:26;;;;;;;8.73;3.60;;;10.40;99.90;;;;;;5052387;28;20519;-65
2022/03/06 06:08:53;;;;;;;10.10;3.23;;;10.40;99.90;;;;;;5073480;28;20762;-66
2022/03/06 06:11:19;;;;;;;3.87;3.07;;;10.50;99.90;;;;;;5068089;28;20195;-65
2022/03/06 06:13:46;;;;;;;7.30;3.70;;;10.50;99.90;;;;;;5070857;28;20642;-65
2022/03/06 06:16:13;;;;;;;6.40;3.13;;;10.50;99.90;;;;;;5052218;28;20183;-65
2022/03/06 06:18:40;;;;;;;4.67;3.67;;;10.60;99.90;;;;;;5066080;28;20191;-65
2022/03/06 06:21:07;;;;;;;6.37;3.27;;;10.60;99.90;;;;;;5067767;28;20206;-65
2022/03/06 06:23:34;;;;;;;6.67;3.70;;;10.60;99.90;;;;;;5068309;28;20872;-66
2022/03/06 06:26:00;;;;;;;4.87;3.53;;;10.70;99.90;;;;;;5068931;28;20202;-66
2022/03/06 06:28:28;;;;;;;5.90;3.70;;;10.70;99.90;;;;;;5068961;28;20347;-66
2022/03/06 06:30:54;;;;;;;5.30;3.50;;;10.80;99.90;;;;;;5068073;28;20182;-67
2022/03/06 06:33:20;;;;;;;9.10;2.90;;;10.80;99.90;;;;;;5065429;28;20192;-67
2022/03/06 06:35:47;;;;;;;10.30;3.50;;;10.80;99.90;;;;;;5050238;28;20188;-67
2022/03/06 06:38:13;;;;;;;8.43;3.20;;;10.80;99.90;;;;;;5068614;28;20195;-66
2022/03/06 06:40:39;;;;;;;6.27;2.73;;;10.90;99.90;;;;;;5067921;28;20628;-66
2022/03/06 06:43:06;;;;;;;4.00;2.67;;;10.90;99.90;;;;;;5069479;28;20202;-63
2022/03/06 06:45:33;;;;;;;5.83;3.00;;;10.90;99.90;;;;;;5068832;28;20195;-65
2022/03/06 06:47:59;;;;;;;4.20;2.70;;;11.00;99.90;;;;;;5067989;28;20204;-64
2022/03/06 06:50:25;;;;;;;6.47;2.77;;;11.00;99.90;;;;;;5078347;28;20182;-65
2022/03/06 06:52:51;;;;;;;3.93;2.50;;;11.00;99.90;;;;;;5072157;28;20186;-65
2022/03/06 06:55:18;;;;;;;4.80;2.57;;;11.00;99.90;;;;;;5089652;28;20232;-64
2022/03/06 06:57:44;;;;;;;6.07;2.47;;;11.10;99.90;;;;;;5085214;28;20248;-64
2022/03/06 07:00:11;;;;;;;4.97;2.37;;;11.20;99.90;;;;;;5067453;28;20643;-65
2022/03/06 07:02:37;;;;;;;5.50;2.40;;;11.20;99.90;;;;;;5067304;28;20198;-65
2022/03/06 07:05:04;;;;;;;5.67;2.30;;;11.20;99.90;;;;;;5069310;28;20539;-64
2022/03/06 07:07:30;;;;;;;6.10;2.43;;;11.20;99.90;;;;;;5051664;28;20209;-64
2022/03/06 07:09:57;;;;;;;6.70;2.17;;;11.20;99.90;;;;;;5068316;28;20268;-65
2022/03/06 07:12:23;;;;;;;6.77;2.40;;;11.30;99.90;;;;;;5069138;28;20218;-63
2022/03/06 07:14:49;;;;;;;7.43;2.37;;;11.40;99.90;;;;;;5066971;28;20240;-65
2022/03/06 07:17:15;;;;;;;3.70;2.23;;;11.50;99.90;;;;;;5069181;28;20827;-64
2022/03/06 07:19:42;;;;;;;2.87;2.20;;;11.50;99.90;;;;;;5068931;28;20222;-65
2022/03/06 07:22:08;;;;;;;4.30;2.23;;;11.50;99.90;;;;;;5069077;28;20274;-64
2022/03/06 07:24:34;;;;;;;4.30;2.33;;;11.60;99.90;;;;;;5069108;28;20244;-64
2022/03/06 07:27:01;;;;;;;3.93;2.10;;;11.70;99.90;;;;;;5068252;28;20190;-63
2022/03/06 07:29:27;;;;;;;3.70;2.30;;;11.70;99.90;;;;;;5066939;28;20781;-65
2022/03/06 07:31:53;;;;;;;4.93;2.00;;;11.70;99.90;;;;;;5069056;28;20178;-63
2022/03/06 07:34:20;;;;;;;4.50;1.97;;;11.80;99.90;;;;;;5068410;28;20199;-63
2022/03/06 07:36:49;;;;;;;6.17;2.23;;;11.90;99.90;;;;;;5048981;28;20190;-64
2022/03/06 07:39:16;;;;;;;3.50;2.20;;;12.00;99.90;;;;;;5067353;28;20179;-63
2022/03/06 07:41:42;;;;;;;4.47;2.50;;;12.00;99.90;;;;;;5068286;28;20248;-64
2022/03/06 07:44:08;;;;;;;3.60;2.20;;;12.00;99.90;;;;;;5068943;28;20866;-64
2022/03/06 07:46:34;;;;;;;4.27;2.40;;;12.00;99.90;;;;;;5067687;28;20194;-64
2022/03/06 07:49:01;;;;;;;4.93;2.10;;;12.00;99.90;;;;;;5069031;28;20226;-63
2022/03/06 07:51:27;;;;;;;3.70;2.67;;;12.00;99.90;;;;;;5068336;28;20667;-64
2022/03/06 07:53:53;;;;;;;4.10;2.30;;;12.00;99.90;;;;;;5067238;28;20629;-63
2022/03/06 07:56:19;;;;;;;7.30;2.57;;;11.90;99.90;;;;;;5066811;28;20187;-64
2022/03/06 07:58:46;;;;;;;7.67;2.77;;;11.90;99.90;;;;;;5067352;28;20210;-66
2022/03/06 08:01:12;;;;;;;5.20;2.60;;;11.90;99.90;;;;;;5067725;28;20194;-65
2022/03/06 08:03:38;;;;;;;5.20;2.60;;;12.00;99.90;;;;;;5068227;28;20260;-65
2022/03/06 08:06:05;;;;;;;5.77;2.67;;;12.00;99.90;;;;;;5066270;28;20187;-65
2022/03/06 08:08:31;;;;;;;3.57;2.60;;;11.90;99.90;;;;;;5049464;28;20215;-62
2022/03/06 08:10:57;;;;;;;5.47;2.67;;;12.00;99.90;;;;;;5068343;28;20206;-62
2022/03/06 08:13:24;;;;;;;3.40;2.00;;;12.00;99.90;;;;;;5067024;28;20191;-62
2022/03/06 08:15:50;;;;;;;6.33;2.30;;;12.10;99.90;;;;;;5066244;28;20222;-62
2022/03/06 08:18:16;;;;;;;5.10;2.37;;;12.10;99.90;;;;;;5067135;28;20700;-62
2022/03/06 08:20:42;;;;;;;7.57;2.33;;;12.10;99.90;;;;;;5049748;28;20277;-62
2022/03/06 08:23:09;;;;;;;6.60;2.30;;;12.20;99.90;;;;;;5066863;28;20187;-65
2022/03/06 08:25:35;;;;;;;3.07;2.17;;;12.30;99.90;;;;;;5061721;28;20210;-66
2022/03/06 08:28:01;;;;;;;3.67;2.40;;;12.40;99.90;;;;;;5063860;28;20240;-66
2022/03/06 08:30:28;;;;;;;6.57;2.60;;;12.60;99.90;;;;;;5064446;28;20189;-63
2022/03/06 08:32:54;;;;;;;5.87;2.70;;;12.70;99.90;;;;;;5065138;28;20182;-62
2022/03/06 08:35:20;;;;;;;3.10;2.27;;;12.80;99.90;;;;;;5067453;28;20209;-62
2022/03/06 08:37:47;;;;;;;3.87;2.40;;;13.00;99.90;;;;;;5067449;28;20183;-63
2022/03/06 08:40:13;;;;;;;5.87;2.50;;;13.10;99.90;;;;;;5066338;28;20199;-66
2022/03/06 08:42:39;;;;;;;5.17;2.30;;;13.20;99.90;;;;;;5063842;28;20252;-66
2022/03/06 08:45:06;;;;;;;5.27;2.10;;;13.30;99.90;;;;;;5067295;28;20206;-66
2022/03/06 08:47:33;;;;;;;9.03;2.33;;;13.40;99.90;;;;;;5064688;28;20199;-65
2022/03/06 08:49:59;;;;;;;5.60;2.40;;;13.60;99.90;;;;;;5087640;28;20256;-62
2022/03/06 08:52:25;;;;;;;5.20;1.97;;;13.70;99.90;;;;;;5071058;28;20175;-63
2022/03/06 08:54:52;;;;;;;6.60;2.57;;;13.80;99.90;;;;;;5072295;28;20211;-63
2022/03/06 08:57:18;;;;;;;10.27;2.30;;;13.90;99.90;;;;;;5070200;28;20392;-65
2022/03/06 08:59:44;;;;;;;11.37;3.13;;;14.00;99.90;;;;;;5071031;28;20206;-65
2022/03/06 09:02:11;;;;;;;8.67;3.30;;;14.00;99.90;;;;;;5071161;28;20581;-66
2022/03/06 09:04:37;;;;;;;7.20;2.80;;;14.10;99.90;;;;;;5069845;28;20183;-66
2022/03/06 09:07:03;;;;;;;3.80;2.43;;;14.10;99.90;;;;;;5070329;28;20733;-66
2022/03/06 09:09:30;;;;;;;9.47;3.00;;;14.20;99.90;;;;;;5070100;28;20219;-67
2022/03/06 09:11:56;;;;;;;13.93;2.83;;;14.20;99.90;;;;;;5064372;28;20190;-66
2022/03/06 09:14:23;;;;;;;6.50;3.10;;;14.20;99.90;;;;;;5049254;28;21552;-66
2022/03/06 09:16:49;;;;;;;7.50;2.70;;;14.40;99.90;;;;;;5061911;28;20183;-67
2022/03/06 09:19:16;;;;;;;7.40;2.80;;;14.40;99.90;;;;;;5064865;28;20206;-67
2022/03/06 09:21:43;;;;;;;7.50;3.07;;;14.50;99.90;;;;;;5077986;28;20240;-65
2022/03/06 09:24:11;;;;;;;8.47;3.13;;;14.70;99.90;;;;;;5067277;28;20269;-67
2022/03/06 09:26:38;;;;;;;8.73;3.40;;;14.80;99.90;;;;;;5066656;28;20286;-67
2022/03/06 09:29:05;;;;;;;10.67;3.90;;;14.80;99.90;;;;;;5067144;28;20810;-67
2022/03/06 09:31:32;;;;;;;12.00;4.23;;;15.00;99.90;;;;;;5064353;28;20183;-66
2022/03/06 09:33:58;;;;;;;7.77;3.70;;;15.00;99.90;;;;;;5075992;28;20251;-66
2022/03/06 09:36:25;;;;;;;7.27;4.00;;;15.10;99.90;;;;;;5066025;28;20194;-67
2022/03/06 09:38:51;;;;;;;11.00;3.40;;;15.10;99.90;;;;;;5066677;28;20197;-66
2022/03/06 09:41:24;;;;;;;13.53;3.00;;;15.20;99.90;;;;;;5066563;28;21935;-66
2022/03/06 09:43:54;;;;;;;14.03;3.20;;;15.10;99.90;;;;;;5067756;28;20186;-67
2022/03/06 09:46:24;;;;;;;9.27;3.27;;;15.10;99.90;;;;;;5065960;28;20198;-66
2022/03/06 09:48:52;;;;;;;12.63;3.40;;;15.30;99.90;;;;;;5062328;28;20946;-66
2022/03/06 09:51:19;;;;;;;13.90;3.87;;;15.50;99.90;;;;;;5066833;28;20681;-66
2022/03/06 09:53:45;;;;;;;11.07;3.33;;;15.90;99.90;;;;;;5081361;28;20233;-66
2022/03/06 09:56:12;;;;;;;10.37;3.50;;;16.30;99.90;;;;;;5065950;28;20596;-67
2022/03/06 09:58:38;;;;;;;13.40;3.70;;;16.50;99.90;;;;;;5069379;28;20206;-67
2022/03/06 10:01:04;;;;;;;12.53;3.57;;;16.50;99.90;;;;;;5065670;28;20673;-67
2022/03/06 10:03:37;;;;;;;11.93;3.70;;;16.40;99.90;;;;;;5066357;28;20194;-67
2022/03/06 10:06:07;;;;;;;15.70;4.07;;;16.20;99.90;;;;;;5065982;28;20205;-67
2022/03/06 10:08:34;;;;;;;10.10;3.47;;;16.20;99.90;;;;;;5067080;28;20218;-67
2022/03/06 10:11:08;;;;;;;14.80;3.57;;;16.90;99.90;;;;;;5064331;28;20179;-67
2022/03/06 10:13:43;;;;;;;22.90;4.50;;;18.20;99.90;;;;;;5063589;28;20197;-67
2022/03/06 10:16:21;;;;;;;14.60;3.97;;;20.00;99.90;;;;;;5064945;28;20198;-67
2022/03/06 10:18:50;;;;;;;26.30;4.87;;;21.00;99.90;;;;;;5067229;28;20197;-66
2022/03/06 10:21:32;;;;;;;16.50;4.30;;;21.30;99.90;;;;;;5067956;28;20187;-66
2022/03/06 10:24:06;;;;;;;23.30;4.77;;;20.20;99.90;;;;;;5067297;28;20194;-67
2022/03/06 10:26:35;;;;;;;19.10;4.23;;;19.40;99.90;;;;;;5062519;28;20212;-68
2022/03/06 10:29:12;;;;;;;23.97;4.33;;;19.30;99.90;;;;;;5068265;28;20221;-67
2022/03/06 10:31:56;;;;;;;24.83;4.77;;;19.30;99.90;;;;;;5068799;28;20213;-67
2022/03/06 10:34:39;;;;;;;25.30;5.00;;;19.40;99.90;;;;;;5067157;28;20847;-67
2022/03/06 10:37:07;;;;;;;24.93;4.40;;;19.90;99.90;;;;;;5071956;28;20743;-66
2022/03/06 10:39:45;;;;;;;15.97;4.20;;;21.30;99.90;;;;;;5072166;28;20205;-66
2022/03/06 10:42:21;;;;;;;21.07;4.27;;;22.40;99.90;;;;;;5070554;28;20672;-65
2022/03/06 10:44:48;;;;;;;16.33;4.20;;;22.90;99.90;;;;;;5068157;28;20187;-65
2022/03/06 10:47:15;;;;;;;16.60;4.23;;;22.40;99.90;;;;;;5050611;28;20187;-67
2022/03/06 10:49:57;;;;;;;18.13;4.27;;;21.50;99.90;;;;;;5062777;28;20215;-66
2022/03/06 10:52:24;;;;;;;19.37;4.30;;;20.90;99.90;;;;;;5066055;28;20182;-66
2022/03/06 10:54:56;;;;;;;19.70;4.57;;;20.60;99.90;;;;;;5070048;28;20563;-67
2022/03/06 10:57:24;;;;;;;22.37;4.07;;;20.30;99.90;;;;;;5063144;28;20175;-67
2022/03/06 10:59:52;;;;;;;19.20;4.13;;;20.10;99.90;;;;;;5064988;28;20223;-67
2022/03/06 11:02:20;;;;;;;24.73;4.13;;;19.80;99.90;;;;;;5067397;28;20191;-66
2022/03/06 11:04:49;;;;;;;24.77;4.47;;;19.40;99.90;;;;;;5050899;28;20191;-67
2022/03/06 11:07:15;;;;;;;17.10;4.10;;;19.10;99.90;;;;;;5068551;28;20194;-67
2022/03/06 11:09:44;;;;;;;15.23;3.93;;;19.10;99.90;;;;;;5065724;28;20300;-67
2022/03/06 11:12:10;;;;;;;18.23;5.77;;;19.00;99.90;;;;;;5066088;28;20191;-67
2022/03/06 11:14:38;;;;;;;21.63;4.27;;;18.90;99.90;;;;;;5068432;28;20190;-66
2022/03/06 11:17:06;;;;;;;20.70;4.00;;;18.90;99.90;;;;;;5069727;28;20637;-67
2022/03/06 11:19:33;;;;;;;19.27;4.93;;;18.70;99.90;;;;;;5068854;28;20199;-67
2022/03/06 11:22:19;;;;;;;17.27;4.23;;;18.50;99.90;;;;;;5059640;28;20294;-67
2022/03/06 11:24:57;;;;;;;19.03;5.20;;;18.40;99.90;;;;;;5065738;28;20206;-67
2022/03/06 11:27:43;;;;;;;22.23;5.40;;;18.20;99.90;;;;;;5066367;28;20191;-67
2022/03/06 11:30:22;;;;;;;16.93;5.57;;;18.00;99.90;;;;;;5075950;28;20218;-67
2022/03/06 11:33:03;;;;;;;30.17;5.83;;;17.90;99.90;;;;;;5064421;28;20186;-67
2022/03/06 11:35:36;;;;;;;17.63;5.47;;;17.80;99.90;;;;;;5045909;28;20194;-67
2022/03/06 11:38:05;;;;;;;17.47;4.37;;;17.70;99.90;;;;;;5065112;28;20484;-67
2022/03/06 11:41:09;;;;;;;17.67;5.60;;;17.50;99.90;;;;;;5067766;28;20195;-67
2022/03/06 11:43:47;;;;;;;26.07;5.70;;;17.40;99.90;;;;;;5057183;28;20233;-67
2022/03/06 11:46:19;;;;;;;15.30;5.40;;;17.10;99.90;;;;;;5063760;28;20291;-66
2022/03/06 11:48:49;;;;;;;17.03;5.20;;;17.10;99.90;;;;;;5064343;28;20285;-67
2022/03/06 11:51:23;;;;;;;33.07;5.30;;;17.00;99.90;;;;;;5065693;28;20186;-67
2022/03/06 11:54:09;;;;;;;14.30;4.90;;;17.00;99.90;;;;;;5067034;28;21198;-66
2022/03/06 11:56:36;;;;;;;16.87;4.73;;;17.00;99.90;;;;;;5063068;28;20191;-67
2022/03/06 11:59:26;;;;;;;13.17;4.93;;;17.00;99.90;;;;;;5060363;28;20210;-67
2022/03/06 12:02:10;;;;;;;15.07;4.80;;;17.00;99.90;;;;;;5067503;28;20610;-67
2022/03/06 12:04:46;;;;;;;14.10;4.73;;;17.00;99.90;;;;;;5066154;28;20232;-67
2022/03/06 12:07:15;;;;;;;17.00;4.40;;;17.00;99.90;;;;;;5065168;28;20268;-67
2022/03/06 12:09:45;;;;;;;16.03;4.27;;;16.90;99.90;;;;;;5065201;28;20221;-67
2022/03/06 12:12:18;;;;;;;13.93;4.50;;;16.90;99.90;;;;;;5067050;28;20273;-67
2022/03/06 12:14:57;;;;;;;13.33;4.23;;;16.90;99.90;;;;;;5061291;28;20202;-67
2022/03/06 12:17:33;;;;;;;15.50;4.17;;;16.80;99.90;;;;;;5067483;28;20182;-67
2022/03/06 12:19:59;;;;;;;18.27;4.50;;;16.80;99.90;;;;;;5067424;28;20284;-67
2022/03/06 12:22:29;;;;;;;20.90;4.20;;;16.70;99.90;;;;;;5069243;28;20214;-67
2022/03/06 12:25:07;;;;;;;8.30;3.67;;;16.70;99.90;;;;;;5067726;28;20211;-67
2022/03/06 12:27:40;;;;;;;18.40;4.00;;;16.60;99.90;;;;;;5064293;28;20198;-67
2022/03/06 12:30:12;;;;;;;8.37;3.60;;;16.50;99.90;;;;;;5068466;28;20670;-67
2022/03/06 12:32:45;;;;;;;12.27;4.17;;;16.30;99.90;;;;;;5071013;28;20228;-67
2022/03/06 12:35:19;;;;;;;19.73;4.80;;;16.20;99.90;;;;;;5069448;28;20198;-67
2022/03/06 12:37:59;;;;;;;16.07;4.53;;;16.20;99.90;;;;;;5069793;28;20186;-67
2022/03/06 12:40:30;;;;;;;19.57;4.40;;;16.20;99.90;;;;;;5069514;28;20530;-67
2022/03/06 12:43:08;;;;;;;14.17;3.53;;;16.20;99.90;;;;;;5070580;28;20570;-67
2022/03/06 12:45:37;;;;;;;15.87;3.80;;;16.10;99.90;;;;;;5065767;28;20296;-67
2022/03/06 12:48:05;;;;;;;14.47;4.20;;;16.10;99.90;;;;;;5069576;28;20195;-66
2022/03/06 12:50:31;;;;;;;23.80;5.20;;;16.00;99.90;;;;;;5040941;28;20190;-67
2022/03/06 12:52:59;;;;;;;14.97;4.27;;;16.00;99.90;;;;;;5068298;28;20190;-67
2022/03/06 12:55:26;;;;;;;19.37;4.70;;;15.90;99.90;;;;;;5075251;28;20186;-67
2022/03/06 12:57:58;;;;;;;11.37;3.67;;;15.80;99.90;;;;;;5070160;28;20205;-67
2022/03/06 13:00:33;;;;;;;16.10;3.87;;;15.70;99.90;;;;;;5070008;28;20635;-67
2022/03/06 13:03:05;;;;;;;15.63;4.30;;;15.70;99.90;;;;;;5069975;28;20278;-67
2022/03/06 13:05:35;;;;;;;21.33;4.33;;;15.60;99.90;;;;;;5068111;28;20218;-67
2022/03/06 13:08:02;;;;;;;15.27;4.00;;;15.60;99.90;;;;;;5057440;28;20183;-67
2022/03/06 13:10:29;;;;;;;18.97;4.53;;;15.60;99.90;;;;;;5088216;28;20217;-67
2022/03/06 13:12:58;;;;;;;20.40;4.07;;;15.50;99.90;;;;;;5079612;28;20940;-67
2022/03/06 13:15:36;;;;;;;12.43;4.27;;;15.50;99.90;;;;;;5069056;28;20187;-67
2022/03/06 13:18:14;;;;;;;15.17;4.20;;;15.40;99.90;;;;;;5070845;28;20587;-67
2022/03/06 13:20:42;;;;;;;18.97;4.30;;;15.40;99.90;;;;;;5069281;28;20186;-67
2022/03/06 13:23:20;;;;;;;14.73;4.23;;;15.40;99.90;;;;;;5069847;28;20200;-67
2022/03/06 13:25:48;;;;;;;17.33;4.43;;;15.30;99.90;;;;;;5051372;28;20221;-67
2022/03/06 13:28:16;;;;;;;16.13;4.60;;;15.20;99.90;;;;;;5068585;28;20309;-66
2022/03/06 13:30:43;;;;;;;15.73;4.10;;;15.20;99.90;;;;;;5067357;28;20190;-67
2022/03/06 13:33:10;;;;;;;12.80;4.07;;;15.30;99.90;;;;;;5068960;28;20190;-67
2022/03/06 13:35:44;;;;;;;17.63;4.50;;;15.30;99.90;;;;;;5068607;28;20186;-67